Time;durP1;ratioP1;P1;durP2;ratioP2;P2;SDS_P1;SDS_P2;PMS_P1;PMS_P2;Temp;Humidity;BMP_temperature;BMP_pressure;BME280_temperature;BME280_humidity;BME280_pressure;Samples;Min_cycle;Max_cycle;Signal;HPM_P1;HPM_P2
2022/09/30 00:02:05;;;;;;;24.72;13.75;;;;;;;13.54;88.67;101324.14;1854900;77;21054;-61
2022/09/30 00:04:34;;;;;;;25.77;13.55;;;;;;;13.56;88.42;101322.32;1855026;77;21232;-61
2022/09/30 00:07:02;;;;;;;24.92;13.58;;;;;;;13.57;88.16;101331.96;1854905;77;21055;-62
2022/09/30 00:09:31;;;;;;;24.45;11.38;;;;;;;13.58;88.12;101340.31;1854920;77;21027;-62
2022/09/30 00:12:00;;;;;;;17.62;9.98;;;;;;;13.56;88.20;101335.08;1854891;77;21132;-62
2022/09/30 00:14:28;;;;;;;23.83;13.13;;;;;;;13.55;88.19;101329.84;1854910;77;21070;-62
2022/09/30 00:16:58;;;;;;;23.85;12.33;;;;;;;13.50;88.58;101328.27;1854844;77;21456;-62
2022/09/30 00:19:27;;;;;;;25.43;11.05;;;;;;;13.47;89.39;101329.70;1854871;77;21454;-62
2022/09/30 00:21:55;;;;;;;27.00;15.05;;;;;;;13.45;89.57;101332.88;1854933;77;21502;-62
2022/09/30 00:24:24;;;;;;;26.42;13.43;;;;;;;13.46;89.79;101333.30;1854826;76;21078;-62
2022/09/30 00:26:53;;;;;;;26.52;12.47;;;;;;;13.47;90.13;101338.11;1854900;77;21086;-63
2022/09/30 00:29:22;;;;;;;23.73;12.10;;;;;;;13.47;90.29;101335.47;1854813;77;21062;-63
2022/09/30 00:31:51;;;;;;;28.75;14.07;;;;;;;13.49;90.15;101342.40;1854903;77;21070;-61
2022/09/30 00:34:19;;;;;;;24.43;13.22;;;;;;;13.49;90.40;101341.08;1854917;77;21063;-61
2022/09/30 00:36:54;;;;;;;28.95;13.95;;;;;;;13.48;90.41;101348.63;1854929;77;21149;-61
2022/09/30 00:39:25;;;;;;;30.37;14.87;;;;;;;13.46;90.18;101350.48;1854872;77;21035;-61
2022/09/30 00:41:57;;;;;;;30.48;14.07;;;;;;;13.44;89.94;101349.66;1854889;77;21046;-62
2022/09/30 00:44:52;;;;;;;27.75;15.45;;;;;;;13.41;89.76;101351.56;1854920;77;21138;-62
2022/09/30 00:47:32;;;;;;;30.50;14.13;;;;;;;13.36;89.89;101346.95;1854898;77;21493;-61
2022/09/30 00:50:34;;;;;;;20.88;11.97;;;;;;;13.28;90.15;101343.27;1854241;77;21027;-61
2022/09/30 00:53:18;;;;;;;20.55;11.68;;;;;;;13.21;90.31;101340.48;1854911;77;21572;-61
2022/09/30 00:55:58;;;;;;;24.92;12.63;;;;;;;13.13;90.55;101341.64;1844104;77;21176;-62
2022/09/30 00:58:42;;;;;;;28.87;11.95;;;;;;;13.10;90.66;101347.52;1854847;77;21054;-62
2022/09/30 01:01:10;;;;;;;25.40;12.45;;;;;;;13.05;90.83;101334.46;1854979;76;21117;-62
2022/09/30 01:03:42;;;;;;;24.57;11.73;;;;;;;13.03;90.98;101338.09;1854899;77;21042;-62
2022/09/30 01:06:10;;;;;;;25.85;12.55;;;;;;;13.00;91.03;101341.70;1854886;77;21121;-62
2022/09/30 01:08:40;;;;;;;23.25;12.05;;;;;;;12.96;91.21;101337.47;1854883;77;21059;-62
2022/09/30 01:11:09;;;;;;;19.55;11.53;;;;;;;12.94;91.27;101339.31;1854816;77;21453;-62
2022/09/30 01:13:41;;;;;;;24.10;13.28;;;;;;;12.93;91.44;101341.11;1854885;77;21157;-62
2022/09/30 01:16:21;;;;;;;24.30;11.83;;;;;;;12.93;91.32;101348.19;1854841;77;21112;-62
2022/09/30 01:19:14;;;;;;;21.40;11.63;;;;;;;12.90;91.47;101350.94;1854850;77;21571;-62
2022/09/30 01:22:05;;;;;;;21.07;12.10;;;;;;;12.89;91.48;101349.20;1828388;77;21212;-61
2022/09/30 01:24:59;;;;;;;24.87;12.28;;;;;;;12.85;91.59;101352.42;1855305;77;21074;-61
2022/09/30 01:28:04;;;;;;;20.88;11.65;;;;;;;12.82;91.62;101351.67;1857944;77;21153;-61
2022/09/30 01:30:58;;;;;;;21.80;11.88;;;;;;;12.79;91.52;101357.95;1857984;77;21042;-61
2022/09/30 01:33:48;;;;;;;22.13;11.08;;;;;;;12.72;91.51;101355.14;1858055;77;21117;-61
2022/09/30 01:36:28;;;;;;;23.47;11.90;;;;;;;12.66;91.58;101358.87;1856467;77;21497;-61
2022/09/30 01:39:27;;;;;;;24.20;12.18;;;;;;;12.59;91.66;101352.10;1857813;77;21168;-61
2022/09/30 01:42:01;;;;;;;23.35;12.82;;;;;;;12.57;91.82;101352.63;1857818;77;21121;-61
2022/09/30 01:44:33;;;;;;;29.52;14.05;;;;;;;12.55;92.03;101358.42;1837555;76;21521;-62
2022/09/30 01:47:08;;;;;;;26.45;13.13;;;;;;;12.55;92.26;101353.14;1857804;77;21046;-61
2022/09/30 01:49:48;;;;;;;26.15;12.85;;;;;;;12.55;92.53;101359.28;1853024;76;21034;-61
2022/09/30 01:52:24;;;;;;;31.07;12.33;;;;;;;12.55;92.60;101357.11;1857944;77;21043;-60
2022/09/30 01:55:14;;;;;;;29.23;12.80;;;;;;;12.55;92.53;101356.64;1857780;77;21079;-61
2022/09/30 01:57:57;;;;;;;25.50;12.28;;;;;;;12.55;92.49;101366.34;1857816;77;21501;-61
2022/09/30 02:00:27;;;;;;;27.10;13.48;;;;;;;12.53;92.50;101372.16;1857835;75;21534;-61
2022/09/30 02:03:13;;;;;;;30.55;14.45;;;;;;;12.52;92.50;101380.98;1858062;77;21070;-61
2022/09/30 02:05:47;;;;;;;27.93;12.78;;;;;;;12.51;92.46;101379.27;1858030;77;21018;-61
2022/09/30 02:08:19;;;;;;;23.07;11.10;;;;;;;12.52;92.47;101378.34;1856833;77;21023;-61
2022/09/30 02:10:55;;;;;;;27.58;14.18;;;;;;;12.53;92.56;101378.76;1857934;77;21355;-61
2022/09/30 02:13:29;;;;;;;19.27;9.43;;;;;;;12.53;92.65;101378.76;1857936;77;21054;-62
2022/09/30 02:16:01;;;;;;;28.38;14.47;;;;;;;12.52;92.73;101377.02;1857912;77;21085;-62
2022/09/30 02:18:35;;;;;;;31.62;15.18;;;;;;;12.51;92.74;101376.17;1857891;77;21070;-62
2022/09/30 02:21:07;;;;;;;33.78;14.43;;;;;;;12.52;92.80;101377.02;1858064;77;21047;-62
2022/09/30 02:23:39;;;;;;;29.72;13.88;;;;;;;12.54;93.12;101365.50;1857979;77;21047;-62
2022/09/30 02:26:20;;;;;;;24.20;11.30;;;;;;;12.56;92.94;101366.77;1856384;77;21666;-63
2022/09/30 02:28:54;;;;;;;21.35;9.93;;;;;;;12.58;92.95;101360.97;1854918;77;21121;-62
2022/09/30 02:31:25;;;;;;;28.47;12.25;;;;;;;12.63;93.14;101364.27;1854971;77;21043;-62
2022/09/30 02:34:06;;;;;;;24.20;11.90;;;;;;;12.64;92.99;101359.87;1854952;77;21067;-63
2022/09/30 02:36:41;;;;;;;22.90;11.45;;;;;;;12.64;93.07;101360.72;1854955;77;21046;-62
2022/09/30 02:39:14;;;;;;;19.62;11.22;;;;;;;12.64;93.13;101358.55;1854554;77;21133;-62
2022/09/30 02:41:51;;;;;;;26.30;12.20;;;;;;;12.63;93.22;101355.02;1853748;77;21152;-62
2022/09/30 02:44:21;;;;;;;22.02;12.55;;;;;;;12.61;93.21;101364.79;1854931;77;21054;-62
2022/09/30 02:46:58;;;;;;;24.35;12.33;;;;;;;12.60;93.15;101369.69;1854860;77;21063;-62
2022/09/30 02:49:42;;;;;;;19.00;11.78;;;;;;;12.58;93.27;101363.61;1851298;75;21051;-62
2022/09/30 02:52:22;;;;;;;19.00;9.88;;;;;;;12.56;93.13;101362.80;1825580;76;21473;-62
2022/09/30 02:55:03;;;;;;;23.47;12.90;;;;;;;12.54;93.12;101364.61;1854853;77;21504;-62
2022/09/30 02:57:43;;;;;;;25.25;11.65;;;;;;;12.52;93.15;101367.34;1849620;77;21485;-62
2022/09/30 03:00:13;;;;;;;23.50;12.58;;;;;;;12.47;93.30;101363.14;1854556;76;21054;-62
2022/09/30 03:02:42;;;;;;;24.87;12.58;;;;;;;12.42;93.38;101376.97;1855006;77;21042;-62
2022/09/30 03:05:11;;;;;;;22.05;10.63;;;;;;;12.38;93.38;101374.05;1854915;77;21067;-62
2022/09/30 03:07:41;;;;;;;29.67;12.13;;;;;;;12.33;93.42;101372.41;1854871;77;21166;-62
2022/09/30 03:10:15;;;;;;;26.57;13.93;;;;;;;12.28;93.41;101373.06;1854932;77;21047;-62
2022/09/30 03:13:11;;;;;;;28.05;13.03;;;;;;;12.25;93.56;101367.88;1854694;77;21125;-62
2022/09/30 03:16:02;;;;;;;26.87;13.15;;;;;;;12.22;93.57;101356.09;1854941;77;21525;-62
2022/09/30 03:18:55;;;;;;;29.90;14.23;;;;;;;12.19;93.49;101366.80;1854884;77;21125;-62
2022/09/30 03:21:46;;;;;;;41.63;15.10;;;;;;;12.17;93.49;101365.95;1854874;77;21555;-62
2022/09/30 03:24:20;;;;;;;35.25;16.35;;;;;;;12.15;93.46;101366.47;1854965;77;21145;-61
2022/09/30 03:26:57;;;;;;;42.15;17.77;;;;;;;12.13;93.50;101358.60;1855814;76;21564;-61
2022/09/30 03:29:49;;;;;;;30.23;13.25;;;;;;;12.13;93.60;101364.34;1857818;77;21148;-62
2022/09/30 03:32:23;;;;;;;30.15;13.05;;;;;;;12.14;93.47;101366.09;1857899;77;21152;-62
2022/09/30 03:35:18;;;;;;;33.00;15.63;;;;;;;12.14;93.35;101366.94;1856682;76;21133;-63
2022/09/30 03:38:23;;;;;;;30.77;15.28;;;;;;;12.17;93.39;101369.91;1857482;77;21490;-62
2022/09/30 03:41:01;;;;;;;38.40;16.37;;;;;;;12.19;93.51;101373.39;1857932;77;21047;-62
2022/09/30 03:43:42;;;;;;;26.05;13.08;;;;;;;12.23;93.69;101382.92;1857741;77;21133;-62
2022/09/30 03:46:23;;;;;;;31.15;14.33;;;;;;;12.26;93.79;101376.19;1857955;77;21246;-62
2022/09/30 03:48:54;;;;;;;27.27;13.20;;;;;;;12.33;93.99;101386.08;1857824;77;21513;-62
2022/09/30 03:51:24;;;;;;;37.80;15.60;;;;;;;12.39;93.96;101385.00;1857827;77;21501;-63
2022/09/30 03:53:54;;;;;;;33.55;15.05;;;;;;;12.44;93.94;101389.66;1857681;77;21642;-62
2022/09/30 03:56:30;;;;;;;32.42;12.82;;;;;;;12.48;93.99;101389.94;1857962;77;21461;-62
2022/09/30 03:59:00;;;;;;;27.80;12.98;;;;;;;12.53;93.95;101393.28;1857916;77;21168;-62
2022/09/30 04:01:28;;;;;;;27.30;11.83;;;;;;;12.58;93.81;101392.66;1857802;77;21105;-62
2022/09/30 04:03:57;;;;;;;27.82;14.05;;;;;;;12.64;93.73;101393.75;1857693;77;21215;-63
2022/09/30 04:06:26;;;;;;;25.72;12.43;;;;;;;12.71;93.62;101393.07;1857789;77;21158;-62
2022/09/30 04:08:55;;;;;;;25.08;12.18;;;;;;;12.75;93.50;101391.56;1857899;77;21157;-62
2022/09/30 04:11:24;;;;;;;29.50;12.55;;;;;;;12.80;93.34;101395.80;1857954;77;21120;-63
2022/09/30 04:13:52;;;;;;;24.90;12.45;;;;;;;12.84;93.14;101405.36;1857826;77;21116;-63
2022/09/30 04:16:21;;;;;;;32.65;14.03;;;;;;;12.88;92.95;101400.36;1857806;77;21094;-63
2022/09/30 04:18:50;;;;;;;33.25;14.33;;;;;;;12.92;92.77;101405.92;1857706;77;21093;-63
2022/09/30 04:21:19;;;;;;;28.17;13.75;;;;;;;12.98;92.61;101406.14;1857917;77;21109;-63
2022/09/30 04:23:48;;;;;;;33.28;13.98;;;;;;;13.02;92.41;101403.77;1857838;77;21078;-62
2022/09/30 04:26:22;;;;;;;33.70;15.28;;;;;;;13.03;92.30;101402.40;1857765;77;21062;-62
2022/09/30 04:31:37;;;;;;;31.87;13.70;;;;;;;13.15;92.36;101414.30;1895614;75;21053;-62
2022/09/30 04:34:06;;;;;;;27.65;12.82;;;;;;;13.24;92.27;101417.02;1895521;76;21037;-62
2022/09/30 04:36:35;;;;;;;30.50;13.58;;;;;;;13.35;92.19;101416.16;1895625;76;21126;-62
2022/09/30 04:39:05;;;;;;;27.45;13.53;;;;;;;13.47;92.03;101417.47;1895506;76;21061;-62
2022/09/30 04:41:34;;;;;;;25.15;12.00;;;;;;;13.57;91.84;101416.63;1895389;76;21521;-63
2022/09/30 04:44:07;;;;;;;28.55;12.07;;;;;;;13.65;91.64;101419.38;1895540;76;21061;-62
2022/09/30 04:46:39;;;;;;;31.62;13.03;;;;;;;13.76;91.48;101424.66;1895854;74;21042;-62
2022/09/30 04:49:06;;;;;;;30.48;13.53;;;;;;;13.85;91.33;101421.20;1861788;77;21079;-62
2022/09/30 04:51:35;;;;;;;30.10;13.32;;;;;;;13.99;91.13;101418.42;1895519;76;21041;-62
2022/09/30 04:54:04;;;;;;;30.75;14.53;;;;;;;14.11;90.97;101417.91;1895464;76;21076;-63
2022/09/30 04:56:33;;;;;;;33.02;13.98;;;;;;;14.26;90.86;101422.53;1895524;76;21030;-62
2022/09/30 04:59:01;;;;;;;35.28;14.85;;;;;;;14.39;90.73;101424.66;1895546;76;21076;-62
2022/09/30 05:01:30;;;;;;;29.65;14.07;;;;;;;14.51;90.58;101426.73;1895596;76;21053;-62
2022/09/30 05:03:59;;;;;;;25.50;12.55;;;;;;;14.64;90.42;101430.62;1895538;76;21103;-62
2022/09/30 05:06:28;;;;;;;29.40;12.88;;;;;;;14.76;90.22;101425.68;1895465;76;21134;-63
2022/09/30 05:08:56;;;;;;;30.95;13.10;;;;;;;14.90;90.00;101425.88;1895452;76;21072;-62
2022/09/30 05:11:26;;;;;;;28.27;12.55;;;;;;;15.08;89.80;101435.26;1895497;76;21046;-63
2022/09/30 05:13:55;;;;;;;25.02;11.95;;;;;;;15.31;89.46;101433.71;1895524;76;21053;-62
2022/09/30 05:29:21;;;;;;;13.60;9.03;;;;;;;18.76;82.24;101426.81;1960358;72;27931;-59
2022/09/30 05:31:50;;;;;;;12.90;7.45;;;;;;;19.40;82.07;101433.02;1919652;73;21145;-59
2022/09/30 05:34:20;;;;;;;14.83;6.95;;;;;;;19.93;82.46;101426.44;1919499;75;21047;-61
2022/09/30 05:36:48;;;;;;;11.78;6.47;;;;;;;20.16;81.49;101430.20;1919476;75;21115;-59
2022/09/30 05:39:17;;;;;;;12.13;6.87;;;;;;;20.33;80.77;101430.41;1919561;75;21019;-59
2022/09/30 05:41:46;;;;;;;17.48;6.30;;;;;;;20.63;79.51;101429.61;1919668;75;21027;-59
2022/09/30 05:44:14;;;;;;;12.58;6.87;;;;;;;21.03;78.07;101429.94;1919520;75;21093;-59
2022/09/30 05:46:43;;;;;;;15.45;6.85;;;;;;;21.63;77.28;101430.06;1919543;75;20996;-59
2022/09/30 05:49:12;;;;;;;13.05;5.90;;;;;;;22.32;76.30;101429.70;1919433;75;21524;-59
2022/09/30 05:51:43;;;;;;;10.05;5.58;;;;;;;22.92;74.84;101422.76;1919606;74;21019;-59
2022/09/30 05:54:30;;;;;;;13.70;5.45;;;;;;;23.48;73.42;101433.43;1927893;74;21607;-59
2022/09/30 05:56:59;;;;;;;10.98;5.42;;;;;;;23.88;71.55;101426.56;1927953;74;21002;-59
2022/09/30 05:59:28;;;;;;;9.28;6.42;;;;;;;24.31;70.88;101434.14;1927861;74;21513;-61
2022/09/30 06:01:57;;;;;;;14.30;5.50;;;;;;;24.91;70.08;101432.47;1927956;74;21038;-59
2022/09/30 06:04:26;;;;;;;11.93;5.40;;;;;;;25.47;68.66;101434.26;1927962;74;21074;-59
2022/09/30 06:06:54;;;;;;;7.97;4.45;;;;;;;26.05;67.73;101432.09;1927965;74;21085;-59
2022/09/30 06:09:23;;;;;;;12.55;5.33;;;;;;;26.59;66.18;101432.70;1927876;74;21057;-59
2022/09/30 06:11:54;;;;;;;20.50;5.60;;;;;;;27.14;65.35;101436.47;1927813;74;21033;-60
2022/09/30 06:14:22;;;;;;;14.10;5.35;;;;;;;27.64;64.15;101437.35;1927832;73;21041;-59
2022/09/30 06:16:51;;;;;;;10.20;5.53;;;;;;;27.95;62.59;101440.20;1927874;74;21030;-59
2022/09/30 06:19:20;;;;;;;9.58;4.90;;;;;;;28.32;61.48;101441.31;1927835;74;21108;-59
2022/09/30 06:21:49;;;;;;;9.88;5.17;;;;;;;28.71;59.80;101433.27;1927984;74;20997;-59
2022/09/30 06:24:17;;;;;;;17.05;6.55;;;;;;;29.07;59.33;101427.14;1927882;74;21002;-59
2022/09/30 06:26:46;;;;;;;16.85;6.70;;;;;;;29.39;58.29;101436.40;1927865;74;21185;-60
2022/09/30 06:29:15;;;;;;;12.33;6.62;;;;;;;29.83;57.19;101429.34;1927464;74;21081;-59
2022/09/30 06:31:44;;;;;;;12.47;5.70;;;;;;;30.19;55.83;101433.03;1927287;74;21128;-59
2022/09/30 06:34:13;;;;;;;12.40;6.80;;;;;;;30.45;54.54;101430.12;1927175;74;21066;-59
2022/09/30 06:36:41;;;;;;;10.63;5.05;;;;;;;30.78;53.48;101429.52;1927165;74;21622;-60
2022/09/30 06:39:10;;;;;;;10.23;4.90;;;;;;;31.21;51.86;101434.60;1927127;74;21033;-60
2022/09/30 06:41:42;;;;;;;8.35;3.87;;;;;;;31.50;50.58;101441.23;1927200;74;21013;-60
2022/09/30 06:44:10;;;;;;;7.25;4.47;;;;;;;31.78;49.19;101440.19;1927379;74;21046;-60
2022/09/30 06:46:39;;;;;;;10.68;4.17;;;;;;;31.91;48.32;101445.86;1927232;74;21065;-59
2022/09/30 06:49:08;;;;;;;8.60;4.03;;;;;;;32.27;47.53;101441.10;1927184;74;21053;-59
2022/09/30 06:51:36;;;;;;;9.60;4.40;;;;;;;32.56;46.73;101446.25;1927114;74;21053;-60
2022/09/30 06:54:06;;;;;;;8.28;4.58;;;;;;;32.91;46.28;101444.34;1931098;74;21065;-59
2022/09/30 06:56:35;;;;;;;8.50;4.35;;;;;;;33.17;45.16;101445.20;1933776;74;21506;-60
2022/09/30 06:59:04;;;;;;;7.67;4.37;;;;;;;33.17;44.61;101445.20;1933610;74;21351;-60
2022/09/30 07:01:33;;;;;;;20.15;9.65;;;;;;;33.27;43.28;101437.04;1933751;74;21021;-59
2022/09/30 07:04:08;;;;;;;10.55;4.28;;;;;;;33.40;42.46;101443.16;1933559;74;21029;-60
2022/09/30 07:06:32;;;;;;;9.38;4.78;;;;;;;33.73;41.82;101433.09;1934097;73;21119;-60
2022/09/30 07:09:01;;;;;;;25.10;9.68;;;;;;;33.78;41.04;101436.08;1933628;74;21135;-59
2022/09/30 07:11:29;;;;;;;33.45;14.35;;;;;;;33.76;40.68;101439.53;1933616;74;21495;-59
2022/09/30 07:13:58;;;;;;;22.73;8.13;;;;;;;33.72;40.48;101438.24;1933649;74;21040;-60
2022/09/30 07:16:26;;;;;;;7.22;3.92;;;;;;;33.99;40.36;101439.82;1933642;74;21471;-59
2022/09/30 07:18:55;;;;;;;15.50;6.85;;;;;;;34.11;39.40;101439.61;1933535;74;21120;-60
2022/09/30 07:21:24;;;;;;;5.92;3.05;;;;;;;34.10;39.10;101437.91;1933639;74;21013;-60
2022/09/30 07:23:53;;;;;;;9.08;2.92;;;;;;;34.23;38.34;101435.33;1933735;74;21021;-60
2022/09/30 07:26:25;;;;;;;7.80;3.25;;;;;;;34.28;37.27;101433.87;1933643;74;21475;-59
2022/09/30 07:28:54;;;;;;;88.00;37.95;;;;;;;34.40;37.00;101426.81;1933747;74;21041;-59
2022/09/30 07:31:25;;;;;;;9.90;4.92;;;;;;;34.60;36.24;101432.36;1933579;74;21182;-60
2022/09/30 07:33:55;;;;;;;16.75;8.85;;;;;;;34.61;35.70;101440.37;1933934;74;21124;-60
2022/09/30 07:36:32;;;;;;;8.73;3.40;;;;;;;34.55;35.14;101434.89;1933623;74;21037;-59
2022/09/30 07:39:04;;;;;;;8.60;3.67;;;;;;;34.93;35.25;101431.17;1933632;74;21057;-59
2022/09/30 07:41:32;;;;;;;7.60;5.22;;;;;;;35.18;35.12;101432.88;1933613;74;21143;-60
2022/09/30 07:44:01;;;;;;;6.60;3.58;;;;;;;35.18;35.12;101432.88;1933614;74;21167;-60
2022/09/30 07:46:32;;;;;;;11.73;5.90;;;;;;;35.29;34.64;101440.18;1933685;74;21099;-60
2022/09/30 07:49:05;;;;;;;7.67;5.50;;;;;;;35.53;34.51;101435.47;1933746;74;21037;-59
2022/09/30 07:51:35;;;;;;;5.62;3.60;;;;;;;36.02;34.31;101439.41;1933624;73;21045;-60
2022/09/30 07:54:06;;;;;;;8.03;4.43;;;;;;;36.73;33.52;101438.69;1931749;73;21061;-60
2022/09/30 07:56:37;;;;;;;11.53;4.43;;;;;;;36.73;33.52;101438.69;1927421;74;22026;-60
2022/09/30 07:59:07;;;;;;;6.62;3.67;;;;;;;36.84;33.35;101435.80;1927513;74;21104;-60
2022/09/30 08:01:36;;;;;;;8.40;4.20;;;;;;;37.03;33.11;101428.52;1927353;74;21093;-60
2022/09/30 08:04:07;;;;;;;7.80;3.95;;;;;;;37.30;32.31;101431.99;1927278;74;21097;-60
2022/09/30 08:06:51;;;;;;;9.05;4.60;;;;;;;37.39;31.12;101435.32;1927175;74;21057;-60
2022/09/30 08:09:22;;;;;;;11.53;3.65;;;;;;;36.88;30.99;101437.04;1927280;74;21037;-59
2022/09/30 08:11:51;;;;;;;4.95;2.58;;;;;;;36.96;30.97;101434.57;1927180;74;21533;-59
2022/09/30 08:14:23;;;;;;;6.03;2.92;;;;;;;37.14;30.29;101444.83;1927143;74;21033;-59
2022/09/30 08:16:54;;;;;;;6.87;3.02;;;;;;;37.40;30.44;101446.60;1927330;74;21111;-59
2022/09/30 08:19:24;;;;;;;8.05;3.27;;;;;;;37.59;30.57;101440.64;1927152;74;21005;-60
2022/09/30 08:21:53;;;;;;;4.90;2.40;;;;;;;37.65;29.35;101442.55;1927181;74;21009;-60
2022/09/30 08:24:23;;;;;;;4.83;2.52;;;;;;;37.67;29.15;101445.91;1927168;74;21009;-60
2022/09/30 08:26:52;;;;;;;4.28;2.42;;;;;;;37.63;28.82;101443.31;1927154;74;21088;-59
2022/09/30 08:29:21;;;;;;;4.28;2.33;;;;;;;37.65;28.40;101451.63;1927144;74;21491;-60
2022/09/30 08:31:51;;;;;;;7.03;2.17;;;;;;;37.33;28.00;101447.17;1927052;74;21174;-60
2022/09/30 08:34:20;;;;;;;3.45;2.17;;;;;;;37.34;28.11;101447.50;1927171;74;21053;-59
2022/09/30 08:36:48;;;;;;;6.05;2.30;;;;;;;37.49;28.20;101452.14;1927119;74;21091;-60
2022/09/30 08:39:18;;;;;;;4.30;2.55;;;;;;;37.90;28.07;101445.28;1927121;74;21018;-60
2022/09/30 08:41:49;;;;;;;8.58;2.90;;;;;;;38.30;27.71;101440.81;1927250;74;21049;-60
2022/09/30 08:44:39;;;;;;;4.20;2.15;;;;;;;38.47;27.54;101445.72;1926577;74;21037;-60
2022/09/30 08:47:30;;;;;;;3.70;2.40;;;;;;;38.54;27.39;101435.48;1927203;74;21125;-60
2022/09/30 08:50:08;;;;;;;8.95;2.77;;;;;;;38.14;26.94;101443.61;1903093;74;21503;-60
2022/09/30 08:52:49;;;;;;;3.92;2.10;;;;;;;38.13;27.11;101438.36;1926997;74;21463;-60
2022/09/30 08:55:32;;;;;;;3.80;2.17;;;;;;;38.12;27.00;101437.50;1931958;74;21037;-59
2022/09/30 08:58:04;;;;;;;4.75;2.15;;;;;;;38.27;27.01;101435.77;1937258;73;21065;-60
2022/09/30 09:00:33;;;;;;;8.07;2.83;;;;;;;37.89;26.08;101432.63;1937394;74;21041;-60
2022/09/30 09:03:02;;;;;;;3.92;2.10;;;;;;;37.72;26.53;101436.98;1937078;74;21695;-60
2022/09/30 09:05:49;;;;;;;6.15;2.72;;;;;;;38.09;26.38;101428.86;1937147;74;21499;-60
2022/09/30 09:08:21;;;;;;;4.65;2.20;;;;;;;38.10;26.80;101427.81;1937162;74;21041;-60
2022/09/30 09:10:53;;;;;;;3.37;2.35;;;;;;;38.36;26.73;101429.44;1941410;73;21107;-60
2022/09/30 09:13:42;;;;;;;4.37;2.42;;;;;;;38.39;26.65;101435.32;1936545;74;21099;-60
2022/09/30 09:16:16;;;;;;;4.05;2.20;;;;;;;38.71;26.66;101434.35;1937413;73;21037;-60
2022/09/30 09:19:11;;;;;;;5.70;2.47;;;;;;;38.83;26.45;101431.65;1937325;73;21081;-60
2022/09/30 09:21:59;;;;;;;3.25;1.80;;;;;;;38.73;26.54;101437.17;1936904;73;21114;-60
2022/09/30 09:24:39;;;;;;;5.12;2.35;;;;;;;39.03;26.22;101435.55;1937121;74;21119;-60
2022/09/30 09:27:40;;;;;;;3.85;2.20;;;;;;;38.66;26.05;101441.08;1937121;74;21041;-60
2022/09/30 09:30:15;;;;;;;4.95;2.05;;;;;;;38.77;26.29;101438.92;1937167;74;21111;-60
2022/09/30 09:32:46;;;;;;;7.03;2.60;;;;;;;39.12;26.12;101432.77;1937156;74;21431;-60
2022/09/30 09:35:31;;;;;;;7.92;2.72;;;;;;;39.53;25.83;101433.35;1937326;74;21033;-60
2022/09/30 09:38:28;;;;;;;5.05;2.02;;;;;;;39.47;25.65;101439.82;1909709;74;21043;-60
2022/09/30 09:41:06;;;;;;;5.10;2.75;;;;;;;38.71;25.40;101440.69;1933222;73;21186;-60
2022/09/30 09:43:42;;;;;;;10.03;2.83;;;;;;;38.47;25.93;101436.09;1937633;73;21037;-60
2022/09/30 09:46:18;;;;;;;2.17;1.92;;;;;;;38.39;25.72;101438.07;1936814;74;21030;-60
2022/09/30 09:48:47;;;;;;;3.98;2.10;;;;;;;38.46;25.91;101433.02;1937080;74;21092;-60
2022/09/30 09:51:28;;;;;;;4.87;2.20;;;;;;;38.53;25.78;101428.28;1937153;74;21029;-60
2022/09/30 09:53:59;;;;;;;5.12;2.47;;;;;;;38.35;25.67;101431.36;1937353;73;21566;-59
2022/09/30 09:56:33;;;;;;;4.60;2.10;;;;;;;38.05;25.81;101426.55;1930118;74;21171;-59
2022/09/30 09:59:19;;;;;;;5.25;2.30;;;;;;;37.92;25.79;101428.58;1927056;74;21029;-59
2022/09/30 10:01:50;;;;;;;5.55;2.50;;;;;;;37.83;26.05;101426.64;1927086;74;21494;-59
2022/09/30 10:04:28;;;;;;;4.43;2.53;;;;;;;37.62;26.10;101425.97;1927407;74;21529;-59
2022/09/30 10:10:18;;;;;;;4.17;2.62;;;;;;;37.45;26.34;101430.30;1860804;77;21481;-59
2022/09/30 10:24:05;;;;;;;4.62;1.90;;;;;;;36.73;23.29;101423.59;1960203;72;28028;-60
2022/09/30 10:26:37;;;;;;;8.48;1.90;;;;;;;36.95;24.11;101417.27;1917623;74;21069;-60
2022/09/30 10:29:08;;;;;;;5.03;1.62;;;;;;;37.11;24.38;101420.02;1918941;74;21055;-60
2022/09/30 10:31:40;;;;;;;4.95;1.77;;;;;;;36.93;24.29;101412.53;1917284;74;21059;-60
2022/09/30 10:34:20;;;;;;;5.25;2.35;;;;;;;36.45;24.82;101421.98;1919612;74;21093;-59
2022/09/30 10:36:49;;;;;;;6.55;1.90;;;;;;;36.23;25.15;101413.70;1919274;74;21575;-60
2022/09/30 10:39:27;;;;;;;4.83;1.60;;;;;;;36.37;24.73;101409.85;1919544;75;21113;-60
2022/09/30 10:42:17;;;;;;;5.37;2.00;;;;;;;35.86;24.72;101408.66;1919534;75;21445;-60
2022/09/30 10:44:49;;;;;;;3.98;1.80;;;;;;;35.48;25.29;101419.35;1919656;74;21114;-60
2022/09/30 10:47:20;;;;;;;2.12;1.62;;;;;;;34.93;25.96;101412.02;1919776;75;21100;-59
2022/09/30 10:49:54;;;;;;;5.43;1.60;;;;;;;34.69;26.24;101413.94;1919964;75;21004;-60
2022/09/30 10:52:27;;;;;;;4.12;2.00;;;;;;;34.55;26.40;101413.84;1919490;74;21066;-60
2022/09/30 10:55:01;;;;;;;5.40;2.17;;;;;;;34.46;26.72;101416.95;1919665;74;21039;-60
2022/09/30 10:57:32;;;;;;;2.47;1.70;;;;;;;34.59;26.66;101348.13;1919606;74;21039;-59
2022/09/30 11:00:10;;;;;;;3.70;1.65;;;;;;;34.95;26.68;101407.22;1919542;75;21031;-59
2022/09/30 11:02:50;;;;;;;3.00;1.50;;;;;;;34.68;26.52;101419.07;1919458;75;21548;-60
2022/09/30 11:05:25;;;;;;;3.75;1.42;;;;;;;34.68;26.52;101419.07;1919404;74;21063;-59
2022/09/30 11:08:19;;;;;;;2.52;1.37;;;;;;;34.77;26.38;101423.34;1919588;74;21058;-59
2022/09/30 11:11:13;;;;;;;4.20;1.40;;;;;;;34.30;26.32;101419.48;1919528;74;21003;-60
2022/09/30 11:13:50;;;;;;;2.95;1.50;;;;;;;33.99;26.85;101417.97;1919559;74;21019;-59
2022/09/30 11:16:31;;;;;;;2.45;1.50;;;;;;;33.65;26.87;101419.59;1919532;75;21031;-59
2022/09/30 11:19:03;;;;;;;1.80;1.40;;;;;;;33.50;27.47;101414.17;1919477;75;21121;-60
2022/09/30 11:21:44;;;;;;;4.50;1.27;;;;;;;33.37;27.58;101409.95;1919802;75;21090;-60
2022/09/30 11:24:18;;;;;;;2.02;1.30;;;;;;;33.11;27.58;101414.55;1918964;74;21063;-59
2022/09/30 11:27:08;;;;;;;3.02;1.35;;;;;;;32.69;28.12;101416.47;1918022;74;21015;-60
2022/09/30 11:29:58;;;;;;;9.25;2.25;;;;;;;32.45;28.27;101422.20;1918980;75;21071;-60
2022/09/30 11:33:01;;;;;;;5.97;1.90;;;;;;;31.99;28.98;101420.94;1885662;73;21098;-59
2022/09/30 11:35:43;;;;;;;3.50;1.37;;;;;;;31.45;29.51;101419.98;1888740;76;21028;-59
2022/09/30 11:38:23;;;;;;;7.75;1.77;;;;;;;30.82;29.92;101418.27;1888786;76;21470;-60
2022/09/30 11:41:29;;;;;;;2.35;1.30;;;;;;;30.48;30.53;101415.35;1888695;76;21184;-59
2022/09/30 11:44:01;;;;;;;5.10;1.62;;;;;;;30.25;30.91;101414.71;1888714;76;21470;-60
2022/09/30 11:46:55;;;;;;;2.72;1.42;;;;;;;30.00;30.83;101414.73;1886758;76;21035;-60
2022/09/30 11:49:41;;;;;;;3.42;1.57;;;;;;;29.71;31.47;101418.45;1888302;76;21494;-59
2022/09/30 11:52:16;;;;;;;2.35;1.57;;;;;;;29.56;31.79;101420.47;1888758;76;21031;-59
2022/09/30 11:55:07;;;;;;;4.17;1.47;;;;;;;29.43;32.32;101420.13;1840491;76;21048;-59
2022/09/30 11:57:48;;;;;;;2.85;1.40;;;;;;;29.32;32.49;101416.37;1888212;76;21113;-59
2022/09/30 12:00:19;;;;;;;4.92;1.70;;;;;;;29.24;32.67;101427.55;1889069;76;21083;-59
2022/09/30 12:03:02;;;;;;;5.95;1.87;;;;;;;29.20;32.66;101426.19;1888561;76;21023;-60
2022/09/30 12:05:34;;;;;;;3.58;1.30;;;;;;;29.13;32.84;101431.89;1887776;76;21031;-59
2022/09/30 12:08:07;;;;;;;2.08;1.55;;;;;;;29.00;32.70;101431.01;1888694;76;21079;-59
2022/09/30 12:10:43;;;;;;;7.08;1.77;;;;;;;28.88;32.83;101441.31;1888732;76;21555;-59
2022/09/30 12:13:21;;;;;;;2.65;1.60;;;;;;;28.79;33.06;101430.58;1888611;76;21572;-61
2022/09/30 12:15:54;;;;;;;5.55;1.60;;;;;;;28.74;33.14;101435.66;1888830;76;21059;-60
2022/09/30 12:18:29;;;;;;;3.95;1.42;;;;;;;28.67;33.39;101433.58;1888833;76;21083;-59
2022/09/30 12:21:09;;;;;;;5.25;2.25;;;;;;;28.66;33.47;101440.02;1888732;76;21036;-59
2022/09/30 12:23:44;;;;;;;1.75;1.60;;;;;;;28.58;33.15;101433.19;1888091;76;21036;-60